createdAt,value
2023-03-17T00:00:17.954Z,3.38
2023-03-17T00:01:26.355Z,3.38
2023-03-17T00:02:31.615Z,3.26
2023-03-17T00:03:40.518Z,3.33
2023-03-17T00:04:44.506Z,3.32
2023-03-17T00:05:48.634Z,3.13
2023-03-17T00:06:53.364Z,3.37
2023-03-17T00:08:04.498Z,3.19
2023-03-17T00:09:14.942Z,3.37
2023-03-17T00:10:19.679Z,3.29
2023-03-17T00:11:23.930Z,3.37
2023-03-17T00:12:26.642Z,3.26
2023-03-17T00:13:32.430Z,3.35
2023-03-17T00:14:35.082Z,3.36
2023-03-17T00:15:39.002Z,3.37
2023-03-17T00:16:45.436Z,3.37
2023-03-17T00:17:50.582Z,3.37
2023-03-17T00:18:54.371Z,3.35
2023-03-17T00:19:57.672Z,3.35
2023-03-17T00:21:01.164Z,3.34
2023-03-17T00:22:06.817Z,3.34
2023-03-17T00:23:15.067Z,3.34
2023-03-17T00:24:18.705Z,3.34
2023-03-17T00:25:25.016Z,3.29
2023-03-17T00:26:29.289Z,3.31
2023-03-17T00:27:31.808Z,3.35
2023-03-17T00:28:35.549Z,3.35
2023-03-17T00:29:38.346Z,3.34
2023-03-17T00:30:42.088Z,3.32
2023-03-17T00:31:46.224Z,3.32
2023-03-17T00:32:51.895Z,3.30
2023-03-17T00:33:55.383Z,3.30
2023-03-17T00:34:59.154Z,3.30
2023-03-17T00:36:01.962Z,3.29
2023-03-17T00:37:05.632Z,3.28
2023-03-17T00:38:11.787Z,3.29
2023-03-17T00:40:21.972Z,3.31
2023-03-17T00:41:25.923Z,3.31
2023-03-17T00:42:28.516Z,3.21
2023-03-17T00:43:32.794Z,3.28
2023-03-17T00:44:35.607Z,3.33
2023-03-17T00:45:39.553Z,3.33
2023-03-17T00:46:42.453Z,3.28
2023-03-17T00:47:47.835Z,3.32
2023-03-17T00:48:50.632Z,3.29
2023-03-17T00:49:54.542Z,3.31
2023-03-17T00:50:57.173Z,3.33
2023-03-17T00:52:01.799Z,3.31
2023-03-17T00:53:04.406Z,3.31
2023-03-17T00:54:08.815Z,3.31
2023-03-17T00:55:12.101Z,3.31
2023-03-17T00:56:17.434Z,3.29
2023-03-17T00:57:20.037Z,3.30
2023-03-17T00:58:29.005Z,3.31
2023-03-17T00:59:39.021Z,3.24
2023-03-17T01:00:42.339Z,3.30
2023-03-17T01:01:45.409Z,3.30
2023-03-17T01:02:51.086Z,3.28
2023-03-17T01:03:53.718Z,3.25
2023-03-17T01:05:05.724Z,3.28
2023-03-17T01:06:11.282Z,3.29
2023-03-17T01:07:15.707Z,3.29
2023-03-17T01:08:19.458Z,3.25
2023-03-17T01:09:26.061Z,3.30
2023-03-17T01:10:29.982Z,3.31
2023-03-17T01:11:33.925Z,3.31
2023-03-17T01:12:36.594Z,3.22
2023-03-17T01:13:40.718Z,3.32
2023-03-17T01:14:43.966Z,3.37
2023-03-17T01:15:49.610Z,3.38
2023-03-17T01:16:53.363Z,3.28
2023-03-17T01:17:58.884Z,3.43
2023-03-17T01:19:01.509Z,3.29
2023-03-17T01:20:06.762Z,3.46
2023-03-17T01:21:09.404Z,3.46
2023-03-17T01:22:13.768Z,3.47
2023-03-17T01:23:17.278Z,3.49
2023-03-17T01:24:21.248Z,3.50
2023-03-17T01:25:24.058Z,3.53
2023-03-17T01:26:27.763Z,3.54
2023-03-17T01:27:34.234Z,3.58
2023-03-17T01:28:38.012Z,3.54
2023-03-17T01:29:40.252Z,3.63
2023-03-17T01:30:43.946Z,3.53
2023-03-17T01:31:48.016Z,3.64
2023-03-17T01:32:52.226Z,3.67
2023-03-17T01:33:56.452Z,3.67
2023-03-17T01:35:00.313Z,3.69
2023-03-17T01:36:03.212Z,3.66
2023-03-17T01:37:07.210Z,3.70
2023-03-17T01:38:10.323Z,3.70
2023-03-17T01:39:14.756Z,3.71
2023-03-17T01:40:20.806Z,3.72
2023-03-17T01:41:25.219Z,3.72
2023-03-17T01:42:29.547Z,3.73
2023-03-17T01:43:33.271Z,3.76
2023-03-17T01:44:35.687Z,3.77
2023-03-17T01:46:18.759Z,3.79
2023-03-17T01:47:22.656Z,3.77
2023-03-17T01:48:26.367Z,3.71
2023-03-17T01:49:33.552Z,3.75
2023-03-17T01:50:36.964Z,3.72
2023-03-17T01:51:46.975Z,3.75
2023-03-17T01:52:49.171Z,3.76
2023-03-17T01:53:54.306Z,3.74
2023-03-17T01:55:00.924Z,3.74
2023-03-17T01:56:04.932Z,3.72
2023-03-17T01:57:17.094Z,3.70
2023-03-17T01:58:24.339Z,3.72
2023-03-17T01:59:32.732Z,3.67
2023-03-17T02:00:35.563Z,3.70
2023-03-17T02:01:44.570Z,3.69
2023-03-17T02:02:49.320Z,3.69
2023-03-17T02:03:54.088Z,3.68
2023-03-17T02:04:58.734Z,3.67
2023-03-17T02:06:03.242Z,3.67
2023-03-17T02:07:06.522Z,3.65
2023-03-17T02:08:12.751Z,3.64
2023-03-17T02:09:15.338Z,3.65
2023-03-17T02:10:21.024Z,3.64
2023-03-17T02:11:24.176Z,3.64
2023-03-17T02:12:30.581Z,3.63
2023-03-17T02:13:33.705Z,3.64
2023-03-17T02:14:37.856Z,3.62
2023-03-17T02:15:42.372Z,3.58
2023-03-17T02:16:46.727Z,3.64
2023-03-17T02:17:50.110Z,3.64
2023-03-17T02:18:53.799Z,3.63
2023-03-17T02:19:57.534Z,3.66
2023-03-17T02:21:30.652Z,3.67
2023-03-17T02:22:35.881Z,3.68
2023-03-17T02:23:38.464Z,3.69
2023-03-17T02:24:45.183Z,3.69
2023-03-17T02:25:49.052Z,3.67
2023-03-17T02:26:55.368Z,3.68
2023-03-17T02:28:02.127Z,3.66
2023-03-17T02:29:06.773Z,3.69
2023-03-17T02:30:13.156Z,3.69
2023-03-17T02:31:17.438Z,3.65
2023-03-17T02:32:22.232Z,3.59
2023-03-17T02:33:24.953Z,3.64
2023-03-17T02:34:28.731Z,3.63
2023-03-17T02:35:31.862Z,3.61
2023-03-17T02:36:35.928Z,3.59
2023-03-17T02:37:40.373Z,3.58
2023-03-17T02:38:43.971Z,3.54
2023-03-17T02:39:47.905Z,3.52
2023-03-17T02:40:50.508Z,3.55
2023-03-17T02:41:54.098Z,3.54
2023-03-17T02:42:57.069Z,3.55
2023-03-17T02:44:00.884Z,3.54
2023-03-17T02:45:03.564Z,3.54
2023-03-17T02:46:07.733Z,3.51
2023-03-17T02:47:11.617Z,3.49
2023-03-17T02:48:14.013Z,3.52
2023-03-17T02:49:21.809Z,3.50
2023-03-17T02:50:28.102Z,3.46
2023-03-17T02:51:31.899Z,3.51
2023-03-17T02:52:34.606Z,3.51
2023-03-17T02:53:39.887Z,3.46
2023-03-17T02:54:43.084Z,3.49
2023-03-17T02:55:46.854Z,3.47
2023-03-17T02:56:49.039Z,3.49
2023-03-17T02:57:52.605Z,3.48
2023-03-17T02:58:55.178Z,3.48
2023-03-17T02:59:58.859Z,3.44
2023-03-17T03:01:01.560Z,3.45
2023-03-17T03:02:05.413Z,3.40
2023-03-17T03:03:08.092Z,3.46
2023-03-17T03:04:12.189Z,3.45
2023-03-17T03:05:15.200Z,3.46
2023-03-17T03:06:19.014Z,3.46
2023-03-17T03:07:23.062Z,3.43
2023-03-17T03:08:27.645Z,3.44
2023-03-17T03:09:31.559Z,3.41
2023-03-17T03:10:35.298Z,3.45
2023-03-17T03:11:37.780Z,3.42
2023-03-17T03:12:41.183Z,3.42
2023-03-17T03:13:45.286Z,3.38
2023-03-17T03:14:48.024Z,3.40
2023-03-17T03:15:51.813Z,3.37
2023-03-17T03:16:54.819Z,3.35
2023-03-17T03:17:58.522Z,3.35
2023-03-17T03:19:00.923Z,3.36
2023-03-17T03:20:05.342Z,3.37
2023-03-17T03:21:09.869Z,3.36
2023-03-17T03:22:13.701Z,3.34
2023-03-17T03:23:16.596Z,3.36
2023-03-17T03:24:20.283Z,3.37
2023-03-17T03:25:24.043Z,3.38
2023-03-17T03:26:27.712Z,3.38
2023-03-17T03:27:30.487Z,3.36
2023-03-17T03:28:34.441Z,3.27
2023-03-17T03:29:37.303Z,3.42
2023-03-17T03:30:41.893Z,3.42
2023-03-17T03:31:44.472Z,3.43
2023-03-17T03:32:48.799Z,3.45
2023-03-17T03:33:52.660Z,3.46
2023-03-17T03:34:54.859Z,3.47
2023-03-17T03:35:59.644Z,3.48
2023-03-17T03:37:02.435Z,3.48
2023-03-17T03:38:06.183Z,3.53
2023-03-17T03:39:09.038Z,3.55
2023-03-17T03:40:14.688Z,3.57
2023-03-17T03:41:18.803Z,3.58
2023-03-17T03:42:22.798Z,3.60
2023-03-17T03:43:25.960Z,3.61
2023-03-17T03:44:29.666Z,3.63
2023-03-17T03:45:32.397Z,3.63
2023-03-17T03:46:36.369Z,3.66
2023-03-17T03:47:38.902Z,3.69
2023-03-17T03:48:42.606Z,3.71
2023-03-17T03:49:44.843Z,3.76
2023-03-17T03:50:50.059Z,3.79
2023-03-17T03:51:52.648Z,3.79
2023-03-17T03:52:56.363Z,3.85
2023-03-17T03:53:58.747Z,3.86
2023-03-17T03:55:02.501Z,3.83
2023-03-17T03:56:07.180Z,3.89
2023-03-17T03:57:12.567Z,3.93
2023-03-17T03:58:15.415Z,3.96
2023-03-17T03:59:19.204Z,3.97
2023-03-17T04:00:23.137Z,3.97
2023-03-17T04:01:25.909Z,3.96
2023-03-17T04:02:30.102Z,3.90
2023-03-17T04:03:33.349Z,3.97
2023-03-17T04:04:37.340Z,3.84
2023-03-17T04:05:40.196Z,4.00
2023-03-17T04:06:43.860Z,4.01
2023-03-17T04:07:47.002Z,3.97
2023-03-17T04:08:50.804Z,3.96
2023-03-17T04:09:53.549Z,3.97
2023-03-17T04:10:57.311Z,4.02
2023-03-17T04:11:59.910Z,4.02
2023-03-17T04:13:05.265Z,4.00
2023-03-17T04:14:07.837Z,4.03
2023-03-17T04:15:15.685Z,4.03
2023-03-17T04:16:18.331Z,4.02
2023-03-17T04:17:22.168Z,4.01
2023-03-17T04:18:25.997Z,3.99
2023-03-17T04:19:29.754Z,4.04
2023-03-17T04:20:33.590Z,3.91
2023-03-17T04:21:35.885Z,4.04
2023-03-17T04:22:39.677Z,4.06
2023-03-17T04:23:42.292Z,4.02
2023-03-17T04:24:46.239Z,3.95
2023-03-17T04:25:51.814Z,4.08
2023-03-17T04:26:55.543Z,4.08
2023-03-17T04:27:57.758Z,4.10
2023-03-17T04:29:02.938Z,4.10
2023-03-17T04:30:07.298Z,4.08
2023-03-17T04:31:13.304Z,4.09
2023-03-17T04:32:16.270Z,4.11
2023-03-17T04:33:20.661Z,4.11
2023-03-17T04:34:23.495Z,4.12
2023-03-17T04:35:27.412Z,4.08
2023-03-17T04:36:29.992Z,4.10
2023-03-17T04:37:34.701Z,4.13
2023-03-17T04:38:37.260Z,4.11
2023-03-17T04:39:41.013Z,4.08
2023-03-17T04:40:43.267Z,4.09
2023-03-17T04:41:47.909Z,4.02
2023-03-17T04:42:50.604Z,4.05
2023-03-17T04:43:54.289Z,4.05
2023-03-17T04:44:58.360Z,3.94
2023-03-17T04:46:02.122Z,4.07
2023-03-17T04:47:04.877Z,4.08
2023-03-17T04:48:08.554Z,4.09
2023-03-17T04:49:11.045Z,4.08
2023-03-17T04:50:15.630Z,4.14
2023-03-17T04:51:18.245Z,4.14
2023-03-17T04:52:21.956Z,4.18
2023-03-17T04:53:24.199Z,4.19
2023-03-17T04:54:27.887Z,4.17
2023-03-17T04:55:30.807Z,4.21
2023-03-17T04:56:34.583Z,4.23
2023-03-17T04:57:37.101Z,4.26
2023-03-17T04:58:40.449Z,4.28
2023-03-17T04:59:43.018Z,4.30
2023-03-17T05:00:48.243Z,4.33
2023-03-17T05:01:51.870Z,4.34
2023-03-17T05:02:54.394Z,4.36
2023-03-17T05:03:58.138Z,4.34
2023-03-17T05:05:00.334Z,4.37
2023-03-17T05:06:05.476Z,4.39
2023-03-17T05:07:08.035Z,4.38
2023-03-17T05:08:11.671Z,4.35
2023-03-17T05:09:14.254Z,4.27
2023-03-17T05:10:18.556Z,4.37
2023-03-17T05:11:21.199Z,4.30
2023-03-17T05:12:27.166Z,4.34
2023-03-17T05:13:29.851Z,4.32
2023-03-17T05:14:33.628Z,4.31
2023-03-17T05:15:37.011Z,4.29
2023-03-17T05:16:42.138Z,4.29
2023-03-17T05:17:44.740Z,4.30
2023-03-17T05:18:49.055Z,4.31
2023-03-17T05:19:53.022Z,4.31
2023-03-17T05:20:57.016Z,4.32
2023-03-17T05:22:01.426Z,4.33
2023-03-17T05:23:04.011Z,4.31
2023-03-17T05:24:08.053Z,4.36
2023-03-17T05:25:10.838Z,4.37
2023-03-17T05:26:16.386Z,4.37
2023-03-17T05:27:31.610Z,4.39
2023-03-17T05:28:44.427Z,4.42
2023-03-17T05:29:47.953Z,4.43
2023-03-17T05:30:52.372Z,4.46
2023-03-17T05:31:58.781Z,4.46
2023-03-17T05:33:02.562Z,4.47
2023-03-17T05:34:05.897Z,4.48
2023-03-17T05:35:10.523Z,4.50
2023-03-17T05:36:14.678Z,4.53
2023-03-17T05:37:17.640Z,4.54
2023-03-17T05:38:21.226Z,4.54
2023-03-17T05:39:23.769Z,4.58
2023-03-17T05:40:27.617Z,4.58
2023-03-17T05:41:30.705Z,4.57
2023-03-17T05:42:34.308Z,4.58
2023-03-17T05:43:37.213Z,4.54
2023-03-17T05:44:40.762Z,4.58
2023-03-17T05:45:43.570Z,4.55
2023-03-17T05:46:47.192Z,4.56
2023-03-17T05:47:51.248Z,4.56
2023-03-17T05:48:54.863Z,4.55
2023-03-17T05:49:57.455Z,4.55
2023-03-17T05:51:01.295Z,4.54
2023-03-17T05:52:04.066Z,4.56
2023-03-17T05:53:07.862Z,4.60
2023-03-17T05:54:10.706Z,4.60
2023-03-17T05:55:14.377Z,4.66
2023-03-17T05:56:17.291Z,4.71
2023-03-17T05:57:21.252Z,4.73
2023-03-17T05:58:23.719Z,4.76
2023-03-17T05:59:27.972Z,4.79
2023-03-17T06:00:31.151Z,4.77
2023-03-17T06:01:35.351Z,4.80
2023-03-17T06:02:38.328Z,4.81
2023-03-17T06:03:43.392Z,4.84
2023-03-17T06:04:46.042Z,4.85
2023-03-17T06:05:49.860Z,4.80
2023-03-17T06:06:52.698Z,4.84
2023-03-17T06:07:56.697Z,4.76
2023-03-17T06:08:59.523Z,4.81
2023-03-17T06:10:03.710Z,4.82
2023-03-17T06:11:06.552Z,4.84
2023-03-17T06:12:11.214Z,4.82
2023-03-17T06:13:13.729Z,4.85
2023-03-17T06:14:17.427Z,4.87
2023-03-17T06:15:19.773Z,4.88
2023-03-17T06:16:23.523Z,4.91
2023-03-17T06:17:26.698Z,4.84
2023-03-17T06:18:30.403Z,4.90
2023-03-17T06:19:34.103Z,4.93
2023-03-17T06:20:37.983Z,4.96
2023-03-17T06:21:40.624Z,4.99
2023-03-17T06:23:02.371Z,5.04
2023-03-17T06:24:07.632Z,5.09
2023-03-17T06:25:10.847Z,5.12
2023-03-17T06:26:15.730Z,5.16
2023-03-17T06:27:18.308Z,5.19
2023-03-17T06:28:22.443Z,5.10
2023-03-17T06:29:25.058Z,5.29
2023-03-17T06:30:28.669Z,5.34
2023-03-17T06:31:31.209Z,5.36
2023-03-17T06:32:35.451Z,5.33
2023-03-17T06:33:38.451Z,5.41
2023-03-17T06:34:43.735Z,5.44
2023-03-17T06:35:46.983Z,5.46
2023-03-17T06:36:50.706Z,5.44
2023-03-17T06:37:52.933Z,5.50
2023-03-17T06:38:56.723Z,5.54
2023-03-17T06:40:01.136Z,5.57
2023-03-17T06:41:04.792Z,5.57
2023-03-17T06:42:08.288Z,5.60
2023-03-17T06:43:12.520Z,5.58
2023-03-17T06:44:15.432Z,5.53
2023-03-17T06:45:19.210Z,5.49
2023-03-17T06:46:21.820Z,5.44
2023-03-17T06:47:26.133Z,5.32
2023-03-17T06:48:28.987Z,5.29
2023-03-17T06:49:35.891Z,5.21
2023-03-17T06:50:40.919Z,5.18
2023-03-17T06:51:43.409Z,5.00
2023-03-17T06:52:47.184Z,5.06
2023-03-17T06:53:49.386Z,5.14
2023-03-17T06:54:53.233Z,5.10
2023-03-17T06:55:56.490Z,5.10
2023-03-17T06:57:00.228Z,5.09
2023-03-17T06:58:04.238Z,5.07
2023-03-17T06:59:06.799Z,5.08
2023-03-17T07:00:12.925Z,5.10
2023-03-17T07:01:15.981Z,5.09
2023-03-17T07:02:20.440Z,5.07
2023-03-17T07:03:24.223Z,5.09
2023-03-17T07:04:28.022Z,5.10
2023-03-17T07:05:33.692Z,5.13
2023-03-17T07:06:39.407Z,5.14
2023-03-17T07:07:43.123Z,5.18
2023-03-17T07:08:46.551Z,5.24
2023-03-17T07:09:50.088Z,5.25
2023-03-17T07:10:56.234Z,5.30
2023-03-17T07:11:58.864Z,5.37
2023-03-17T07:13:02.522Z,5.44
2023-03-17T07:14:05.994Z,5.50
2023-03-17T07:15:11.294Z,5.58
2023-03-17T07:16:17.146Z,5.63
2023-03-17T07:17:21.020Z,5.66
2023-03-17T07:18:26.346Z,5.65
2023-03-17T07:19:30.520Z,5.67
2023-03-17T07:20:36.111Z,5.66
2023-03-17T07:21:42.294Z,5.66
2023-03-17T07:22:45.955Z,5.64
2023-03-17T07:23:48.563Z,5.65
2023-03-17T07:24:52.773Z,5.65
2023-03-17T07:25:55.885Z,5.69
2023-03-17T07:26:59.735Z,5.67
2023-03-17T07:28:03.322Z,5.64
2023-03-17T07:29:06.862Z,5.71
2023-03-17T07:30:11.696Z,5.72
2023-03-17T07:31:15.263Z,5.79
2023-03-17T07:32:19.486Z,5.84
2023-03-17T07:33:22.513Z,5.85
2023-03-17T07:34:26.230Z,5.92
2023-03-17T07:35:30.756Z,5.96
2023-03-17T07:36:34.692Z,6.00
2023-03-17T07:37:39.047Z,6.02
2023-03-17T07:38:43.502Z,6.08
2023-03-17T07:39:47.568Z,6.14
2023-03-17T07:40:51.265Z,6.15
2023-03-17T07:41:55.500Z,6.23
2023-03-17T07:43:00.023Z,6.28
2023-03-17T07:44:04.080Z,6.32
2023-03-17T07:45:08.985Z,6.36
2023-03-17T07:46:14.137Z,6.42
2023-03-17T07:47:18.107Z,6.45
2023-03-17T07:48:21.527Z,6.45
2023-03-17T07:49:40.492Z,6.46
2023-03-17T07:50:45.486Z,6.49
2023-03-17T07:51:47.986Z,6.47
2023-03-17T07:52:52.987Z,6.49
2023-03-17T07:54:04.000Z,6.49
2023-03-17T07:55:10.850Z,6.43
2023-03-17T07:56:14.972Z,6.36
2023-03-17T07:57:17.680Z,6.41
2023-03-17T07:58:21.951Z,6.40
2023-03-17T07:59:24.704Z,6.38
2023-03-17T08:00:29.619Z,6.36
2023-03-17T08:01:33.706Z,6.32
2023-03-17T08:02:36.564Z,6.24
2023-03-17T08:03:41.672Z,6.14
2023-03-17T08:04:45.153Z,6.04
2023-03-17T08:05:53.551Z,5.88
2023-03-17T08:06:57.735Z,5.88
2023-03-17T08:08:03.098Z,5.89
2023-03-17T08:09:05.652Z,5.76
2023-03-17T08:10:12.004Z,5.85
2023-03-17T08:11:15.611Z,5.82
2023-03-17T08:12:20.320Z,5.78
2023-03-17T08:13:23.528Z,5.84
2023-03-17T08:14:27.205Z,5.89
2023-03-17T08:15:31.182Z,5.91
2023-03-17T08:16:37.652Z,5.89
2023-03-17T08:17:42.025Z,5.84
2023-03-17T08:18:45.018Z,5.81
2023-03-17T08:19:48.708Z,5.82
2023-03-17T08:20:52.783Z,5.84
2023-03-17T08:21:56.508Z,5.84
2023-03-17T08:22:59.984Z,5.87
2023-03-17T08:24:05.552Z,5.91
2023-03-17T08:25:10.072Z,5.95
2023-03-17T08:26:14.661Z,5.92
2023-03-17T08:27:17.437Z,5.99
2023-03-17T08:28:21.437Z,6.01
2023-03-17T08:29:24.105Z,6.04
2023-03-17T08:30:27.853Z,6.10
2023-03-17T08:31:31.353Z,6.13
2023-03-17T08:32:35.135Z,6.17
2023-03-17T08:33:38.921Z,6.16
2023-03-17T08:34:41.333Z,6.21
2023-03-17T08:35:45.137Z,6.18
2023-03-17T08:36:48.999Z,6.13
2023-03-17T08:37:51.121Z,6.21
2023-03-17T08:38:54.898Z,6.23
2023-03-17T08:39:59.976Z,6.26
2023-03-17T08:41:02.955Z,6.28
2023-03-17T08:42:07.490Z,6.32
2023-03-17T08:43:12.771Z,6.40
2023-03-17T08:44:16.764Z,6.43
2023-03-17T08:45:19.594Z,6.46
2023-03-17T08:46:25.666Z,6.51
2023-03-17T08:47:28.677Z,6.58
2023-03-17T08:48:33.396Z,6.65
2023-03-17T08:49:36.754Z,6.69
2023-03-17T08:50:40.847Z,6.78
2023-03-17T08:51:45.483Z,6.83
2023-03-17T08:52:50.214Z,6.83
2023-03-17T08:53:55.104Z,6.83
2023-03-17T08:55:00.226Z,6.83
2023-03-17T08:56:04.923Z,6.86
2023-03-17T08:57:08.666Z,6.88
2023-03-17T08:58:12.521Z,6.84
2023-03-17T08:59:16.897Z,6.86
2023-03-17T09:00:21.745Z,6.85
2023-03-17T09:01:25.786Z,6.82
2023-03-17T09:02:28.857Z,6.81
2023-03-17T09:03:33.337Z,6.84
2023-03-17T09:04:40.063Z,6.88
2023-03-17T09:05:44.378Z,6.84
2023-03-17T09:07:02.227Z,6.83
2023-03-17T09:08:07.865Z,6.81
2023-03-17T09:09:13.100Z,6.81
2023-03-17T09:10:21.367Z,6.83
2023-03-17T09:11:27.846Z,6.89
2023-03-17T09:12:32.181Z,6.91
2023-03-17T09:13:39.195Z,6.93
2023-03-17T09:14:44.083Z,6.96
2023-03-17T09:15:50.110Z,7.00
2023-03-17T09:16:55.737Z,6.93
2023-03-17T09:17:58.438Z,7.01
2023-03-17T09:19:02.445Z,6.98
2023-03-17T09:20:06.884Z,6.99
2023-03-17T09:21:12.321Z,7.05
2023-03-17T09:22:16.570Z,7.07
2023-03-17T09:23:20.998Z,7.12
2023-03-17T09:24:23.676Z,7.12
2023-03-17T09:25:28.867Z,7.13
2023-03-17T09:26:31.445Z,7.19
2023-03-17T09:27:35.266Z,7.25
2023-03-17T09:28:39.226Z,7.35
2023-03-17T09:29:42.684Z,7.42
2023-03-17T09:30:46.939Z,7.45
2023-03-17T09:31:49.544Z,7.53
2023-03-17T09:32:53.346Z,7.62
2023-03-17T09:33:57.060Z,7.62
2023-03-17T09:34:59.242Z,7.70
2023-03-17T09:36:03.380Z,7.73
2023-03-17T09:37:07.041Z,7.82
2023-03-17T09:38:11.439Z,7.90
2023-03-17T09:39:15.162Z,7.94
2023-03-17T09:40:21.418Z,8.04
2023-03-17T09:41:50.817Z,8.10
2023-03-17T09:43:01.870Z,8.15
2023-03-17T09:44:13.845Z,8.20
2023-03-17T09:45:32.961Z,8.25
2023-03-17T09:46:48.965Z,8.29
2023-03-17T09:48:06.378Z,8.28
2023-03-17T09:49:14.032Z,8.23
2023-03-17T09:50:21.394Z,8.18
2023-03-17T09:51:23.968Z,8.14
2023-03-17T09:52:30.699Z,8.13
2023-03-17T09:53:36.505Z,8.08
2023-03-17T09:54:41.009Z,8.05
2023-03-17T09:55:46.126Z,8.08
2023-03-17T09:57:01.941Z,8.06
2023-03-17T09:58:04.673Z,8.09
2023-03-17T09:59:30.805Z,8.12
2023-03-17T10:00:33.749Z,8.08
2023-03-17T10:01:45.397Z,8.19
2023-03-17T10:02:47.900Z,8.23
2023-03-17T10:03:51.927Z,8.25
2023-03-17T10:04:54.860Z,8.22
2023-03-17T10:06:32.375Z,8.25
2023-03-17T10:07:46.611Z,8.22
2023-03-17T10:08:56.420Z,8.23
2023-03-17T10:10:03.659Z,8.21
2023-03-17T10:11:15.439Z,8.22
2023-03-17T10:12:30.150Z,8.19
2023-03-17T10:13:44.992Z,8.12
2023-03-17T10:14:56.068Z,8.11
2023-03-17T10:16:03.961Z,8.08
2023-03-17T10:17:17.835Z,8.04
2023-03-17T10:18:26.109Z,8.02
2023-03-17T10:19:33.199Z,7.97
2023-03-17T10:20:41.318Z,7.97
2023-03-17T10:21:52.179Z,7.92
2023-03-17T10:22:58.675Z,7.92
2023-03-17T10:24:03.856Z,7.88
2023-03-17T10:25:15.444Z,7.85
2023-03-17T10:26:31.835Z,7.83
2023-03-17T10:27:39.114Z,7.76
2023-03-17T10:28:43.096Z,7.74
2023-03-17T10:29:48.295Z,7.74
2023-03-17T10:30:52.873Z,7.71
2023-03-17T10:31:58.545Z,7.70
2023-03-17T10:33:07.383Z,7.68
2023-03-17T10:34:14.687Z,7.63
2023-03-17T10:35:18.995Z,7.62
2023-03-17T10:36:35.018Z,7.50
2023-03-17T10:37:38.815Z,7.54
2023-03-17T10:38:41.743Z,7.51
2023-03-17T10:39:48.355Z,7.47
2023-03-17T10:40:58.343Z,7.41
2023-03-17T10:42:10.260Z,7.34
2023-03-17T10:43:20.751Z,7.35
2023-03-17T10:44:37.357Z,7.31
2023-03-17T10:45:46.916Z,7.23
2023-03-17T10:46:55.841Z,7.24
2023-03-17T10:47:59.763Z,7.22
2023-03-17T10:49:08.631Z,7.19
2023-03-17T10:50:25.193Z,7.19
2023-03-17T10:51:32.220Z,7.18
2023-03-17T10:52:41.082Z,7.18
2023-03-17T10:53:44.062Z,7.15
2023-03-17T10:54:49.916Z,7.18
2023-03-17T10:55:53.630Z,7.19
2023-03-17T10:57:01.526Z,7.22
2023-03-17T10:58:08.145Z,7.26
2023-03-17T10:59:20.761Z,7.30
2023-03-17T11:00:26.592Z,7.33
2023-03-17T11:01:34.931Z,7.36
2023-03-17T11:02:46.270Z,7.41
2023-03-17T11:03:49.745Z,7.41
2023-03-17T11:04:57.055Z,7.40
2023-03-17T11:06:05.058Z,7.41
2023-03-17T11:07:15.595Z,7.39
2023-03-17T11:08:22.000Z,7.41
2023-03-17T11:09:26.542Z,7.42
2023-03-17T11:10:30.483Z,7.43
2023-03-17T11:11:35.066Z,7.39
2023-03-17T11:12:41.274Z,7.46
2023-03-17T11:13:43.957Z,7.49
2023-03-17T11:14:50.091Z,7.50
2023-03-17T11:15:58.816Z,7.57
2023-03-17T11:17:04.134Z,7.58
2023-03-17T11:18:15.786Z,7.62
2023-03-17T11:19:19.060Z,7.70
2023-03-17T11:20:42.422Z,7.74
2023-03-17T11:21:57.455Z,7.77
2023-03-17T11:23:06.225Z,7.80
2023-03-17T11:24:15.434Z,7.79
2023-03-17T11:25:19.805Z,7.76
2023-03-17T11:26:48.020Z,7.72
2023-03-17T11:27:54.992Z,7.66
2023-03-17T11:29:14.108Z,7.63
2023-03-17T11:30:27.001Z,7.55
2023-03-17T11:31:34.463Z,7.57
2023-03-17T11:32:44.963Z,7.54
2023-03-17T11:33:57.534Z,7.49
2023-03-17T11:35:15.582Z,7.47
2023-03-17T11:36:35.101Z,7.42
2023-03-17T11:37:55.489Z,7.42
2023-03-17T11:39:07.409Z,7.39
2023-03-17T11:40:19.869Z,7.36
2023-03-17T11:41:51.502Z,7.39
2023-03-17T11:43:08.293Z,7.41
2023-03-17T11:44:42.627Z,7.39
2023-03-17T11:45:53.047Z,7.32
2023-03-17T11:47:03.407Z,7.30
2023-03-17T11:48:31.890Z,7.27
2023-03-17T11:49:37.769Z,7.27
2023-03-17T11:50:48.174Z,7.20
2023-03-17T11:52:02.228Z,7.15
2023-03-17T11:53:21.226Z,7.11
2023-03-17T11:54:36.906Z,7.03
2023-03-17T11:55:46.160Z,6.93
2023-03-17T11:56:53.221Z,6.92
2023-03-17T11:57:59.855Z,6.88
2023-03-17T11:59:08.281Z,6.83
2023-03-17T12:00:21.819Z,6.82
2023-03-17T12:01:34.389Z,6.83
2023-03-17T12:02:42.790Z,6.51
2023-03-17T12:03:50.973Z,6.52
2023-03-17T12:04:58.816Z,6.46
2023-03-17T12:06:05.825Z,6.40
2023-03-17T12:07:23.967Z,6.31
2023-03-17T12:08:35.604Z,6.25
2023-03-17T12:09:43.708Z,6.11
2023-03-17T12:10:50.883Z,5.94
2023-03-17T12:11:57.298Z,5.78
2023-03-17T12:13:03.970Z,5.67
2023-03-17T12:14:20.652Z,5.56
2023-03-17T12:15:29.881Z,5.42
2023-03-17T12:16:40.895Z,5.36
2023-03-17T12:17:58.277Z,5.22
2023-03-17T12:19:27.546Z,4.88
2023-03-17T12:20:41.765Z,4.89
2023-03-17T12:21:52.733Z,4.82
2023-03-17T12:23:00.012Z,4.78
2023-03-17T12:24:10.349Z,4.74
2023-03-17T12:25:19.471Z,4.64
2023-03-17T12:26:31.889Z,4.66
2023-03-17T12:27:41.745Z,4.65
2023-03-17T12:28:57.849Z,4.61
2023-03-17T12:30:05.800Z,4.64
2023-03-17T12:31:15.331Z,4.58
2023-03-17T12:32:26.915Z,4.55
2023-03-17T12:33:35.792Z,4.52
2023-03-17T12:34:44.825Z,4.50
2023-03-17T12:35:48.582Z,4.43
2023-03-17T12:36:52.844Z,4.31
2023-03-17T12:38:02.095Z,4.32
2023-03-17T12:39:11.441Z,4.18
2023-03-17T12:40:18.697Z,4.18
2023-03-17T12:41:59.924Z,4.04
2023-03-17T12:43:16.636Z,4.02
2023-03-17T12:44:37.326Z,3.91
2023-03-17T12:45:57.438Z,3.64
2023-03-17T12:47:23.659Z,3.69
2023-03-17T12:48:59.606Z,3.65
2023-03-17T12:50:33.580Z,3.56
2023-03-17T12:51:48.177Z,3.57
2023-03-17T12:53:17.734Z,3.52
2023-03-17T12:54:26.629Z,3.49
2023-03-17T12:55:36.319Z,3.45
2023-03-17T12:56:47.213Z,3.40
2023-03-17T12:58:02.347Z,3.33
2023-03-17T12:59:07.010Z,3.37
2023-03-17T13:00:22.148Z,3.37
2023-03-17T13:01:33.672Z,3.40
2023-03-17T13:02:38.898Z,3.39
2023-03-17T13:04:02.662Z,3.36
2023-03-17T13:05:10.170Z,3.39
2023-03-17T13:06:19.841Z,3.31
2023-03-17T13:07:30.498Z,3.29
2023-03-17T13:08:35.295Z,3.05
2023-03-17T13:09:50.078Z,3.16
2023-03-17T13:11:19.713Z,3.15
2023-03-17T13:13:02.027Z,3.09
2023-03-17T13:14:17.526Z,3.07
2023-03-17T13:15:30.958Z,3.05
2023-03-17T13:16:41.371Z,3.09
2023-03-17T13:17:44.206Z,2.94
2023-03-17T13:18:53.754Z,2.90
2023-03-17T13:19:58.996Z,2.94
2023-03-17T13:21:15.104Z,2.74
2023-03-17T13:22:37.986Z,2.92
2023-03-17T13:23:44.429Z,2.92
2023-03-17T13:24:51.309Z,2.88
2023-03-17T13:25:55.032Z,2.86
2023-03-17T13:27:01.060Z,2.82
2023-03-17T13:28:27.399Z,2.75
2023-03-17T13:29:45.907Z,2.72
2023-03-17T13:31:16.413Z,2.65
2023-03-17T13:32:39.617Z,2.68
2023-03-17T13:33:48.513Z,2.60
2023-03-17T13:34:54.280Z,2.66
2023-03-17T13:36:19.613Z,2.64
2023-03-17T13:37:31.852Z,2.61
2023-03-17T13:39:17.894Z,2.57
2023-03-17T13:40:25.748Z,2.54
2023-03-17T13:41:44.098Z,2.54
2023-03-17T13:43:10.691Z,2.57
2023-03-17T13:44:35.132Z,2.43
2023-03-17T13:45:40.292Z,2.59
2023-03-17T13:46:48.452Z,2.57
2023-03-17T13:47:55.579Z,2.60
2023-03-17T13:49:02.383Z,2.59
2023-03-17T13:50:16.463Z,2.56
2023-03-17T13:51:22.487Z,2.54
2023-03-17T13:52:29.407Z,2.55
2023-03-17T13:53:36.346Z,2.58
2023-03-17T13:54:48.415Z,2.57
2023-03-17T13:56:14.760Z,2.60
2023-03-17T13:57:28.429Z,2.58
2023-03-17T13:58:36.114Z,2.60
2023-03-17T13:59:59.794Z,2.55
2023-03-17T14:01:09.238Z,2.53
2023-03-17T14:02:16.809Z,2.61
2023-03-17T14:03:32.546Z,2.59
2023-03-17T14:04:46.697Z,2.61
2023-03-17T14:05:52.172Z,2.62
2023-03-17T14:06:59.942Z,2.61
2023-03-17T14:08:04.458Z,2.67
2023-03-17T14:09:12.645Z,2.66
2023-03-17T14:10:19.969Z,2.69
2023-03-17T14:11:32.667Z,2.68
2023-03-17T14:12:43.290Z,2.65
2023-03-17T14:13:53.182Z,2.61
2023-03-17T14:15:07.966Z,2.61
2023-03-17T14:16:17.559Z,2.56
2023-03-17T14:17:27.515Z,2.56
2023-03-17T14:18:34.576Z,2.54
2023-03-17T14:19:41.737Z,2.52
2023-03-17T14:20:57.205Z,2.53
2023-03-17T14:22:04.702Z,2.42
2023-03-17T14:23:08.432Z,2.44
2023-03-17T14:24:21.906Z,2.46
2023-03-17T14:25:28.053Z,2.39
2023-03-17T14:26:33.963Z,2.39
2023-03-17T14:27:39.315Z,2.38
2023-03-17T14:28:41.890Z,2.37
2023-03-17T14:29:45.766Z,2.35
2023-03-17T14:30:54.164Z,2.33
2023-03-17T14:32:05.631Z,2.36
2023-03-17T14:33:20.560Z,2.36
2023-03-17T14:34:36.687Z,2.19
2023-03-17T14:35:43.548Z,2.31
2023-03-17T14:36:49.069Z,2.30
2023-03-17T14:37:52.803Z,2.32
2023-03-17T14:38:57.259Z,2.18
2023-03-17T14:40:00.935Z,2.25
2023-03-17T14:41:06.794Z,2.24
2023-03-17T14:42:11.721Z,2.24
2023-03-17T14:43:16.267Z,2.28
2023-03-17T14:44:18.873Z,2.27
2023-03-17T14:45:30.137Z,2.33
2023-03-17T14:46:34.976Z,2.36
2023-03-17T14:47:41.418Z,2.35